Portada
METAR-TAF:

METAR-TAF

Aeropuertos :

Beirut, Líbano

latitud: 33-49N, longitud: 035-29E, altitud: 29 m

Observación

El informe se hizo hace 32 minutos, a las 06:00 UTC
Viento 11 kt del suroeste
Temperatura 29°C
Humedad 66%
Presión 1008 hPa
Visibilidad: 8000 m
Escasas nubes a una altura de 2600 ft

METAR: OLBA 220600Z 23011KT 8000 FEW026 29/22 Q1008 NOSIG

Hora: 09:32 (06:32 UTC)

Pronóstico

El informe se hizo hace 2 horas y 32 minutos, a las 04:00 UTC
Pronóstico válido del 22 a las 06 UTC al 23 a las 12 UTC
Viento 10 kt del suroeste con ráfagas de 22 kt
Visibilidad: 8000 m
Nubes dispersas a una altura de 2500 ft
Evolucionando progresivamente
del 22 a las 21 UTC al 22 a las 24 UTC
Viento 5 kt con dirección variable
Evolucionando progresivamente
del 23 a las 09 UTC al 23 a las 12 UTC
Viento 10 kt del suroeste con ráfagas de 20 kt

TAF: OLBA 220400Z 2206/2312 23010G22KT 8000 SCT025 BECMG 2221/2224 VRB05KT BECMG 2309/2312 23010G20KT

Observaciones y pronósticos meteorológicos de más de 4000 aeropuertos (mensajes METAR y TAF).

Los puntos amarillos y rojos representan las estaciones disponibles.

Ponga el ratón en el punto deseado para ver el nombre de la estación.

Haga clic para ver las observaciones y los pronósticos meteorológicos.

Para cambiar el mapa : haga clic en los botones verdes con una cruz de color negro para hacer un zoom, en el botón verde con un guión para alejar o en las flechas verdes para mapas adyacentes.


METAR-TAF: